Time;durP1;ratioP1;P1;durP2;ratioP2;P2;SDS_P1;SDS_P2;PMS_P1;PMS_P2;Temp;Humidity;BMP_temperature;BMP_pressure;BME280_temperature;BME280_humidity;BME280_pressure;Samples;Min_cycle;Max_cycle;Signal;HPM_P1;HPM_P2
2021/10/26 00:00:43;;;;;;;25.05;23.38;;;9.20;90.80;;;;;;5066234;28;20749;-72
2021/10/26 00:03:10;;;;;;;23.88;22.27;;;9.30;90.90;;;;;;5077354;28;20225;-72
2021/10/26 00:05:37;;;;;;;24.47;22.87;;;9.20;91.10;;;;;;5068267;28;20203;-72
2021/10/26 00:08:04;;;;;;;25.40;23.63;;;9.30;91.30;;;;;;5075839;28;20500;-72
2021/10/26 00:10:32;;;;;;;24.08;22.48;;;9.30;92.80;;;;;;5067352;28;20477;-72
2021/10/26 00:13:00;;;;;;;23.90;22.23;;;9.40;91.80;;;;;;5067430;28;20341;-72
2021/10/26 00:15:27;;;;;;;24.48;22.88;;;9.40;91.10;;;;;;5062758;28;20196;-72
2021/10/26 00:17:54;;;;;;;23.63;22.15;;;9.50;90.90;;;;;;5069172;28;20303;-72
2021/10/26 00:20:21;;;;;;;24.05;22.48;;;9.60;90.50;;;;;;5066854;28;20248;-72
2021/10/26 00:22:48;;;;;;;24.85;23.13;;;9.60;90.50;;;;;;5067559;28;20223;-72
2021/10/26 00:25:15;;;;;;;24.23;22.60;;;9.60;90.40;;;;;;5066701;28;21065;-72
2021/10/26 00:27:42;;;;;;;23.60;21.90;;;9.60;90.50;;;;;;5068320;28;20196;-72
2021/10/26 00:30:11;;;;;;;24.80;23.30;;;9.60;90.60;;;;;;5055752;28;20790;-72
2021/10/26 00:32:38;;;;;;;23.92;22.38;;;9.70;90.50;;;;;;5066445;28;20215;-72
2021/10/26 00:35:06;;;;;;;24.08;22.50;;;9.70;90.50;;;;;;5061639;28;20210;-72
2021/10/26 00:37:33;;;;;;;24.03;22.43;;;9.70;90.40;;;;;;5067282;28;20216;-72
2021/10/26 00:40:00;;;;;;;24.50;23.00;;;9.70;90.40;;;;;;5063431;28;20598;-71
2021/10/26 00:42:27;;;;;;;23.67;22.17;;;9.70;90.50;;;;;;5060276;28;20486;-71
2021/10/26 00:44:54;;;;;;;25.23;23.27;;;9.80;91.60;;;;;;5059038;28;20468;-72
2021/10/26 00:47:22;;;;;;;25.93;23.90;;;9.80;91.00;;;;;;5071083;28;20844;-71
2021/10/26 00:49:49;;;;;;;24.87;23.07;;;9.90;90.40;;;;;;5066408;28;20821;-71
2021/10/26 00:52:16;;;;;;;27.30;25.05;;;9.90;90.10;;;;;;5072372;28;20569;-71
2021/10/26 00:54:44;;;;;;;25.13;23.43;;;10.00;89.50;;;;;;5065628;28;20204;-71
2021/10/26 00:57:11;;;;;;;24.70;23.20;;;10.00;89.30;;;;;;5070618;28;20488;-71
2021/10/26 00:59:38;;;;;;;25.47;23.80;;;10.00;89.10;;;;;;5063641;28;20524;-71
2021/10/26 01:02:05;;;;;;;25.23;23.33;;;9.90;89.60;;;;;;5068742;28;20492;-72
2021/10/26 01:04:34;;;;;;;25.53;23.73;;;9.90;89.60;;;;;;5072510;28;20561;-72
2021/10/26 01:07:01;;;;;;;25.43;23.83;;;10.00;89.40;;;;;;5070209;28;20470;-72
2021/10/26 01:09:28;;;;;;;26.30;24.50;;;10.00;89.20;;;;;;5067336;28;20584;-72
2021/10/26 01:11:55;;;;;;;24.73;23.13;;;10.10;89.20;;;;;;5069042;28;20577;-72
2021/10/26 01:14:22;;;;;;;24.60;23.10;;;10.10;89.00;;;;;;5064970;28;20470;-72
2021/10/26 01:16:49;;;;;;;25.30;23.67;;;10.10;89.30;;;;;;5069137;28;20541;-72
2021/10/26 01:19:16;;;;;;;26.37;24.10;;;10.10;89.90;;;;;;5068341;28;20466;-72
2021/10/26 01:21:45;;;;;;;25.40;23.70;;;10.00;89.60;;;;;;5074474;28;21012;-72
2021/10/26 01:24:14;;;;;;;24.50;23.10;;;10.10;89.20;;;;;;5079771;28;20462;-71
2021/10/26 01:26:40;;;;;;;25.90;23.77;;;10.10;89.10;;;;;;5072716;28;20544;-72
2021/10/26 01:29:07;;;;;;;24.23;22.67;;;10.10;89.00;;;;;;5079479;28;20954;-72
2021/10/26 01:31:34;;;;;;;25.07;23.37;;;10.10;88.90;;;;;;5069660;28;20510;-72
2021/10/26 01:34:02;;;;;;;26.07;24.37;;;10.10;89.00;;;;;;5075835;28;20498;-72
2021/10/26 01:36:29;;;;;;;25.27;23.43;;;10.10;89.10;;;;;;5070233;28;20461;-72
2021/10/26 01:38:57;;;;;;;24.70;23.10;;;10.20;88.90;;;;;;5068981;28;20462;-72
2021/10/26 01:41:24;;;;;;;25.07;23.47;;;10.20;88.70;;;;;;5071696;28;20474;-72
2021/10/26 01:43:53;;;;;;;25.13;23.37;;;10.30;88.50;;;;;;5065522;28;21193;-72
2021/10/26 01:46:20;;;;;;;25.50;24.00;;;10.30;88.60;;;;;;5079534;28;20453;-72
2021/10/26 01:48:47;;;;;;;25.10;23.27;;;10.30;89.30;;;;;;5078250;28;20881;-73
2021/10/26 01:51:14;;;;;;;24.93;23.33;;;10.30;89.10;;;;;;5069881;28;20572;-72
2021/10/26 01:53:41;;;;;;;25.10;23.60;;;10.40;89.00;;;;;;5082318;28;20962;-72
2021/10/26 01:56:09;;;;;;;26.43;24.63;;;10.30;89.00;;;;;;5068918;28;20477;-72
2021/10/26 01:58:36;;;;;;;26.33;24.53;;;10.40;89.10;;;;;;5068900;28;20983;-72
2021/10/26 02:01:03;;;;;;;26.07;24.30;;;10.40;89.10;;;;;;5061087;28;20447;-72
2021/10/26 02:03:30;;;;;;;26.50;24.50;;;10.40;89.70;;;;;;5066962;28;20893;-72
2021/10/26 02:05:57;;;;;;;25.60;23.80;;;10.30;90.60;;;;;;5067845;28;20466;-72
2021/10/26 02:08:24;;;;;;;25.00;23.40;;;10.40;89.90;;;;;;5069989;28;20892;-71
2021/10/26 02:10:51;;;;;;;25.00;23.40;;;10.40;89.70;;;;;;5064234;28;20497;-71
2021/10/26 02:13:19;;;;;;;25.67;24.03;;;10.40;89.70;;;;;;5072691;28;20458;-71
2021/10/26 02:15:46;;;;;;;24.40;22.70;;;10.30;89.90;;;;;;5066511;28;20489;-71
2021/10/26 02:18:13;;;;;;;26.33;24.43;;;10.30;90.50;;;;;;5069731;28;20461;-71
2021/10/26 02:20:40;;;;;;;24.90;23.30;;;10.20;91.10;;;;;;5068400;28;20450;-71
2021/10/26 02:23:07;;;;;;;25.40;23.70;;;10.10;91.30;;;;;;5069087;28;20493;-72
2021/10/26 02:25:34;;;;;;;25.77;23.97;;;10.20;91.40;;;;;;5066253;28;20869;-73
2021/10/26 02:28:01;;;;;;;26.33;24.43;;;10.20;91.70;;;;;;5062885;28;22271;-72
2021/10/26 02:30:29;;;;;;;26.33;24.33;;;10.10;91.80;;;;;;5067300;28;20601;-72
2021/10/26 02:32:56;;;;;;;25.13;23.50;;;10.20;92.00;;;;;;5072627;28;20570;-72
2021/10/26 02:35:23;;;;;;;26.23;24.17;;;10.20;92.10;;;;;;5066771;28;20466;-71
2021/10/26 02:37:50;;;;;;;27.03;25.10;;;10.20;92.60;;;;;;5079030;28;20476;-71
2021/10/26 02:40:17;;;;;;;26.97;24.97;;;10.20;92.70;;;;;;5056844;28;20451;-71
2021/10/26 02:42:44;;;;;;;26.07;24.37;;;10.20;92.90;;;;;;5066824;28;20474;-71
2021/10/26 02:45:11;;;;;;;25.57;23.57;;;10.20;92.90;;;;;;5065203;28;20450;-71
2021/10/26 02:47:39;;;;;;;25.60;23.70;;;10.20;93.10;;;;;;5076765;28;20618;-71
2021/10/26 02:50:07;;;;;;;26.50;24.60;;;10.20;93.20;;;;;;5058987;28;20947;-71
2021/10/26 02:52:36;;;;;;;26.03;24.27;;;10.10;93.60;;;;;;5073676;28;20488;-71
2021/10/26 02:55:04;;;;;;;26.20;24.27;;;10.10;94.10;;;;;;5068267;28;20541;-71
2021/10/26 02:57:31;;;;;;;28.10;25.77;;;10.10;94.30;;;;;;5078876;28;20453;-71
2021/10/26 02:59:58;;;;;;;26.50;24.47;;;10.10;94.80;;;;;;5060722;28;20629;-71
2021/10/26 03:02:25;;;;;;;25.53;23.90;;;10.20;94.60;;;;;;5068930;28;20503;-71
2021/10/26 03:04:54;;;;;;;27.43;25.53;;;10.20;94.40;;;;;;5076237;28;20470;-71
2021/10/26 03:07:21;;;;;;;27.70;25.70;;;10.20;94.60;;;;;;5071653;28;20469;-71
2021/10/26 03:09:48;;;;;;;25.80;24.17;;;10.20;94.70;;;;;;5071057;28;20454;-71
2021/10/26 03:12:15;;;;;;;29.17;27.23;;;10.20;94.90;;;;;;5067276;28;20813;-70
2021/10/26 03:14:42;;;;;;;27.67;25.43;;;10.20;94.90;;;;;;5059728;28;20544;-71
2021/10/26 03:17:09;;;;;;;27.40;25.60;;;10.20;95.10;;;;;;5067193;28;20462;-71
2021/10/26 03:19:36;;;;;;;28.03;25.93;;;10.20;95.00;;;;;;5075855;28;20873;-70
2021/10/26 03:22:04;;;;;;;28.60;26.50;;;10.20;95.10;;;;;;5063333;28;20563;-71
2021/10/26 03:24:31;;;;;;;27.90;26.00;;;10.20;95.20;;;;;;5062296;28;20462;-71
2021/10/26 03:26:58;;;;;;;26.97;25.07;;;10.20;95.20;;;;;;5063086;28;20529;-71
2021/10/26 03:29:25;;;;;;;28.10;25.97;;;10.30;94.90;;;;;;5072835;28;20586;-70
2021/10/26 03:31:53;;;;;;;27.50;25.57;;;10.20;95.30;;;;;;5068110;28;20513;-71
2021/10/26 03:34:20;;;;;;;28.93;26.50;;;10.20;95.40;;;;;;5061636;28;20529;-71
2021/10/26 03:36:47;;;;;;;26.67;24.87;;;10.30;95.30;;;;;;5061869;28;20486;-71
2021/10/26 03:39:16;;;;;;;27.57;25.50;;;10.30;95.10;;;;;;5072751;28;20479;-71
2021/10/26 03:41:43;;;;;;;27.17;25.17;;;10.30;95.10;;;;;;5058764;28;20528;-71
2021/10/26 03:44:10;;;;;;;29.40;27.30;;;10.40;94.80;;;;;;5059781;28;20471;-70
2021/10/26 03:46:37;;;;;;;27.93;25.93;;;10.30;94.80;;;;;;5059997;28;20474;-70
2021/10/26 03:49:04;;;;;;;26.67;24.67;;;10.30;95.70;;;;;;5065876;28;20500;-71
2021/10/26 03:51:32;;;;;;;28.87;26.77;;;10.30;95.40;;;;;;5067111;28;20574;-71
2021/10/26 03:53:59;;;;;;;29.07;27.00;;;10.40;95.30;;;;;;5064736;28;20465;-71
2021/10/26 03:56:27;;;;;;;28.10;26.20;;;10.40;94.90;;;;;;5058828;28;20867;-70
2021/10/26 03:58:57;;;;;;;28.10;26.10;;;10.40;94.90;;;;;;5077220;28;20478;-71
2021/10/26 04:01:23;;;;;;;28.43;26.30;;;10.30;95.40;;;;;;5057243;28;20468;-71
2021/10/26 04:03:51;;;;;;;31.57;29.30;;;10.30;96.00;;;;;;5065977;28;20460;-70
2021/10/26 04:06:20;;;;;;;28.50;26.40;;;10.30;96.00;;;;;;5055792;28;20450;-71
2021/10/26 04:08:54;;;;;;;28.67;26.47;;;10.30;95.70;;;;;;5066736;28;20540;-71
2021/10/26 04:11:22;;;;;;;28.90;26.90;;;10.30;95.60;;;;;;5059760;28;20998;-71
2021/10/26 04:13:51;;;;;;;32.10;30.00;;;10.20;95.60;;;;;;5069863;28;20458;-70
2021/10/26 04:16:19;;;;;;;29.57;27.40;;;10.20;95.60;;;;;;5067729;28;20805;-70
2021/10/26 04:18:46;;;;;;;29.30;27.23;;;10.20;95.60;;;;;;5067419;28;20952;-70
2021/10/26 04:21:15;;;;;;;28.70;26.80;;;10.20;95.60;;;;;;5066801;28;20469;-71
2021/10/26 04:23:42;;;;;;;29.77;27.57;;;10.20;96.00;;;;;;5076895;28;20450;-70
2021/10/26 04:26:09;;;;;;;28.13;25.80;;;10.20;95.90;;;;;;5071486;28;20464;-72
2021/10/26 04:28:36;;;;;;;27.87;26.00;;;10.10;95.80;;;;;;5070186;28;20565;-70
2021/10/26 04:31:05;;;;;;;28.03;26.10;;;10.20;95.90;;;;;;5059272;28;20489;-71
2021/10/26 04:33:33;;;;;;;29.10;27.10;;;10.10;95.80;;;;;;5085545;28;20511;-71
2021/10/26 04:36:00;;;;;;;27.97;25.87;;;10.10;95.90;;;;;;5059880;28;20445;-71
2021/10/26 04:38:26;;;;;;;30.03;27.73;;;10.20;95.80;;;;;;5071807;28;20996;-71
2021/10/26 04:40:57;;;;;;;30.00;27.43;;;10.20;95.60;;;;;;5062614;28;20440;-71
2021/10/26 04:43:25;;;;;;;29.40;27.13;;;10.20;95.60;;;;;;5068724;28;20460;-72
2021/10/26 04:45:52;;;;;;;30.80;28.50;;;10.20;95.50;;;;;;5069637;28;20559;-72
2021/10/26 04:48:22;;;;;;;30.80;28.70;;;10.10;95.60;;;;;;5071377;28;20480;-72
2021/10/26 04:50:49;;;;;;;32.65;30.05;;;10.10;95.50;;;;;;5056885;28;20462;-71
2021/10/26 04:53:16;;;;;;;29.70;27.50;;;10.40;95.30;;;;;;5070912;28;20207;-72
2021/10/26 04:55:43;;;;;;;30.70;28.40;;;10.30;94.70;;;;;;5060451;28;20540;-71
2021/10/26 04:58:10;;;;;;;31.07;28.63;;;10.20;95.00;;;;;;5069916;28;20446;-74
2021/10/26 05:00:37;;;;;;;30.80;28.30;;;10.20;95.20;;;;;;5072504;28;20524;-74
2021/10/26 05:03:04;;;;;;;29.57;27.37;;;10.30;95.30;;;;;;5090815;28;20250;-75
2021/10/26 05:05:33;;;;;;;30.03;27.60;;;10.20;94.80;;;;;;5072042;28;20466;-72
2021/10/26 05:08:01;;;;;;;28.48;26.30;;;10.20;94.80;;;;;;5067408;28;21179;-71
2021/10/26 05:10:28;;;;;;;31.87;29.20;;;10.30;94.90;;;;;;5060203;28;20834;-72
2021/10/26 05:12:55;;;;;;;29.00;27.00;;;10.30;94.90;;;;;;5068956;28;20568;-73
2021/10/26 05:15:22;;;;;;;30.97;28.73;;;10.30;94.90;;;;;;5062103;28;20458;-71
2021/10/26 05:17:50;;;;;;;31.27;29.07;;;10.20;95.20;;;;;;5071342;28;20449;-71
2021/10/26 05:20:19;;;;;;;31.60;29.00;;;10.10;95.70;;;;;;5067781;28;20823;-72
2021/10/26 05:22:49;;;;;;;29.33;27.23;;;10.10;95.80;;;;;;5068888;28;20474;-72
2021/10/26 05:25:16;;;;;;;30.90;28.70;;;10.10;95.80;;;;;;5069302;28;20492;-72
2021/10/26 05:27:43;;;;;;;30.63;28.20;;;10.10;96.00;;;;;;5061886;28;20458;-71
2021/10/26 05:30:11;;;;;;;32.30;29.70;;;10.00;96.20;;;;;;5068748;28;20458;-71
2021/10/26 05:32:40;;;;;;;34.47;32.23;;;10.00;96.20;;;;;;5068394;28;20484;-73
2021/10/26 05:35:07;;;;;;;30.00;27.60;;;10.10;96.00;;;;;;5066693;28;20458;-72
2021/10/26 05:37:34;;;;;;;32.57;29.67;;;10.00;96.00;;;;;;5065313;28;21001;-73
2021/10/26 05:40:03;;;;;;;29.87;27.37;;;10.10;95.60;;;;;;5066219;28;20843;-70
2021/10/26 05:42:30;;;;;;;31.97;29.67;;;10.10;95.60;;;;;;5068811;28;20474;-76
2021/10/26 05:44:57;;;;;;;32.73;30.43;;;10.00;95.90;;;;;;5063633;28;20454;-70
2021/10/26 05:47:24;;;;;;;29.30;27.30;;;10.10;95.80;;;;;;5078566;28;20920;-70
2021/10/26 05:49:51;;;;;;;31.93;29.93;;;10.10;95.90;;;;;;5069764;28;20553;-71
2021/10/26 05:52:18;;;;;;;28.73;26.60;;;10.10;95.80;;;;;;5074140;28;20478;-71
2021/10/26 05:54:45;;;;;;;28.47;26.37;;;10.10;95.50;;;;;;5067938;28;20828;-72
2021/10/26 05:57:13;;;;;;;30.47;28.30;;;10.10;95.60;;;;;;5070137;28;20564;-71
2021/10/26 05:59:40;;;;;;;30.20;28.17;;;10.10;95.50;;;;;;5066619;28;20827;-70
2021/10/26 06:02:07;;;;;;;31.00;28.80;;;10.10;95.50;;;;;;5066328;28;20481;-70
2021/10/26 06:04:34;;;;;;;28.00;26.00;;;10.10;95.30;;;;;;5068518;28;20469;-70
2021/10/26 06:07:01;;;;;;;31.33;28.77;;;10.10;95.50;;;;;;5070133;28;20465;-71
2021/10/26 06:09:30;;;;;;;30.00;27.40;;;10.10;95.50;;;;;;5063457;28;20546;-70
2021/10/26 06:12:00;;;;;;;27.27;25.27;;;10.10;95.60;;;;;;5078065;28;20548;-69
2021/10/26 06:14:28;;;;;;;29.37;26.53;;;10.10;95.50;;;;;;5077042;28;20455;-72
2021/10/26 06:16:55;;;;;;;31.03;28.63;;;10.10;96.00;;;;;;5064533;28;20540;-72
2021/10/26 06:19:22;;;;;;;27.83;25.73;;;10.10;96.00;;;;;;5077814;28;20451;-70
2021/10/26 06:21:49;;;;;;;28.97;26.80;;;10.10;95.80;;;;;;5062585;28;20484;-73
2021/10/26 06:24:16;;;;;;;31.07;28.97;;;10.10;95.60;;;;;;5064230;28;20483;-71
2021/10/26 06:26:43;;;;;;;30.80;28.60;;;10.20;95.40;;;;;;5062153;28;20537;-72
2021/10/26 06:29:10;;;;;;;29.53;27.50;;;10.30;95.10;;;;;;5067406;28;20508;-72
2021/10/26 06:31:39;;;;;;;29.50;27.47;;;10.30;95.10;;;;;;5069688;28;20564;-72
2021/10/26 06:34:05;;;;;;;30.87;28.47;;;10.30;95.10;;;;;;5065910;28;20490;-72
2021/10/26 06:36:32;;;;;;;31.23;28.70;;;10.40;94.90;;;;;;5059743;28;20461;-72
2021/10/26 06:38:59;;;;;;;29.73;27.60;;;10.40;94.80;;;;;;5066167;28;20454;-73
2021/10/26 06:41:26;;;;;;;29.20;27.00;;;10.40;94.60;;;;;;5057696;28;20580;-72
2021/10/26 06:43:53;;;;;;;29.50;27.30;;;10.40;94.70;;;;;;5065381;28;20463;-72
2021/10/26 06:46:20;;;;;;;29.50;27.20;;;10.50;94.50;;;;;;5050635;28;20537;-73
2021/10/26 06:48:48;;;;;;;32.33;29.83;;;10.60;94.30;;;;;;5053131;28;20808;-72
2021/10/26 06:51:15;;;;;;;32.20;29.60;;;10.60;95.00;;;;;;5069244;28;20477;-71
2021/10/26 06:53:43;;;;;;;29.70;27.50;;;10.60;94.80;;;;;;5068368;28;20970;-73
2021/10/26 06:56:13;;;;;;;31.57;28.97;;;10.60;94.60;;;;;;5064232;28;20931;-72
2021/10/26 06:58:40;;;;;;;30.87;28.47;;;10.60;94.70;;;;;;5074796;28;20979;-72
2021/10/26 07:01:08;;;;;;;30.87;28.53;;;10.70;94.20;;;;;;5049081;28;20487;-72
2021/10/26 07:03:36;;;;;;;31.10;28.57;;;10.80;94.20;;;;;;5079461;28;20468;-72
2021/10/26 07:06:05;;;;;;;29.27;27.20;;;10.90;93.70;;;;;;5056202;28;20528;-72
2021/10/26 07:08:32;;;;;;;33.77;31.27;;;10.90;93.10;;;;;;5056245;28;20461;-73
2021/10/26 07:10:59;;;;;;;28.37;26.20;;;11.10;92.90;;;;;;5055363;28;20458;-72
2021/10/26 07:13:27;;;;;;;29.60;27.00;;;11.20;92.70;;;;;;5068850;28;20828;-72
2021/10/26 07:15:54;;;;;;;28.93;26.63;;;11.30;92.10;;;;;;5060110;28;20971;-72
2021/10/26 07:18:21;;;;;;;28.90;26.90;;;11.30;92.20;;;;;;5073436;28;20562;-72
2021/10/26 07:20:48;;;;;;;32.67;30.37;;;11.40;92.00;;;;;;5055801;28;20549;-72
2021/10/26 07:23:16;;;;;;;30.47;28.27;;;11.50;92.00;;;;;;5055870;28;20541;-72
2021/10/26 07:25:43;;;;;;;32.10;29.90;;;11.50;92.10;;;;;;5056742;28;20463;-72
2021/10/26 07:28:10;;;;;;;31.10;28.57;;;11.50;92.40;;;;;;5075807;28;20450;-72
2021/10/26 07:30:39;;;;;;;30.73;28.73;;;11.50;92.10;;;;;;5066680;28;20545;-73
2021/10/26 07:33:08;;;;;;;31.70;29.30;;;11.60;92.00;;;;;;5067815;28;20512;-72
2021/10/26 07:35:40;;;;;;;31.53;29.37;;;11.60;92.00;;;;;;5053874;28;20513;-72
2021/10/26 07:38:07;;;;;;;29.43;27.23;;;11.70;92.40;;;;;;5065602;28;20454;-72
2021/10/26 07:40:36;;;;;;;31.13;28.83;;;11.70;92.20;;;;;;5067034;28;20458;-72
2021/10/26 07:43:03;;;;;;;29.50;27.47;;;11.80;91.70;;;;;;5068424;28;20470;-71
2021/10/26 07:45:30;;;;;;;32.67;30.37;;;11.90;91.00;;;;;;5053547;28;20514;-71
2021/10/26 07:47:57;;;;;;;31.07;28.97;;;11.90;90.90;;;;;;5056855;28;20472;-71
2021/10/26 07:50:24;;;;;;;31.80;29.50;;;12.00;91.80;;;;;;5056959;28;20493;-73
2021/10/26 07:52:51;;;;;;;29.00;26.80;;;12.10;91.60;;;;;;5065536;28;20863;-72
2021/10/26 07:55:18;;;;;;;30.37;28.17;;;12.30;90.80;;;;;;5068227;28;20458;-72
2021/10/26 07:57:46;;;;;;;30.73;28.43;;;12.40;90.00;;;;;;5066832;28;21004;-72
2021/10/26 08:00:14;;;;;;;30.40;28.20;;;12.40;89.80;;;;;;5059136;28;20466;-71
2021/10/26 08:02:42;;;;;;;31.17;28.83;;;12.50;89.70;;;;;;5079882;28;20473;-75
2021/10/26 08:05:09;;;;;;;29.03;27.00;;;12.50;89.30;;;;;;5076870;28;20975;-71
2021/10/26 08:07:37;;;;;;;29.20;27.17;;;12.50;89.00;;;;;;5066943;28;20564;-71
2021/10/26 08:10:05;;;;;;;28.83;26.57;;;12.60;88.90;;;;;;5059663;28;20487;-72
2021/10/26 08:12:32;;;;;;;27.93;26.07;;;12.80;88.60;;;;;;5063083;28;20521;-73
2021/10/26 08:15:00;;;;;;;30.50;27.90;;;12.80;88.20;;;;;;5060677;28;20545;-71
2021/10/26 08:17:27;;;;;;;30.43;28.23;;;13.00;88.30;;;;;;5054089;28;21039;-70
2021/10/26 08:19:54;;;;;;;31.10;28.77;;;13.10;88.90;;;;;;5059374;28;20465;-69
2021/10/26 08:22:24;;;;;;;29.83;27.70;;;13.20;88.40;;;;;;5074070;28;20527;-70
2021/10/26 08:24:56;;;;;;;28.97;27.00;;;13.40;87.80;;;;;;5078651;28;21159;-70
2021/10/26 08:27:23;;;;;;;30.43;28.10;;;13.50;87.10;;;;;;5067600;28;20901;-70
2021/10/26 08:29:54;;;;;;;31.60;29.30;;;13.60;86.30;;;;;;5062335;28;20466;-70
2021/10/26 08:32:43;;;;;;;31.60;29.00;;;13.60;85.10;;;;;;5062185;28;20492;-70
2021/10/26 08:35:22;;;;;;;30.87;28.60;;;13.70;85.60;;;;;;5067143;28;20454;-70
2021/10/26 08:37:50;;;;;;;31.77;29.07;;;13.90;85.70;;;;;;5067015;28;20458;-70
2021/10/26 08:40:18;;;;;;;31.03;28.93;;;13.90;85.30;;;;;;5057815;28;20616;-70
2021/10/26 08:42:46;;;;;;;30.33;27.73;;;14.00;85.00;;;;;;5064540;28;20470;-70
2021/10/26 08:45:13;;;;;;;32.67;30.07;;;14.10;84.90;;;;;;5053805;28;20493;-70
2021/10/26 08:47:42;;;;;;;32.20;29.80;;;14.20;84.70;;;;;;5063854;28;20450;-70
2021/10/26 08:50:10;;;;;;;31.47;29.27;;;14.30;83.50;;;;;;5066903;28;20573;-71
2021/10/26 08:52:37;;;;;;;30.90;28.57;;;14.30;83.50;;;;;;5067436;28;20482;-71
2021/10/26 08:55:07;;;;;;;29.07;26.87;;;14.50;83.70;;;;;;5066975;28;20952;-72
2021/10/26 08:57:35;;;;;;;33.37;30.97;;;14.60;83.00;;;;;;5064803;28;20458;-72
2021/10/26 09:00:06;;;;;;;29.43;27.33;;;14.80;82.70;;;;;;5065789;28;20866;-71
2021/10/26 09:02:35;;;;;;;30.20;28.10;;;14.90;82.20;;;;;;5070198;28;20691;-73
2021/10/26 09:05:11;;;;;;;32.40;30.10;;;15.00;81.50;;;;;;5071372;28;20470;-73
2021/10/26 09:07:38;;;;;;;28.43;26.73;;;15.10;81.20;;;;;;5079873;28;20463;-72
2021/10/26 09:10:14;;;;;;;32.03;29.77;;;15.20;81.30;;;;;;5074053;28;20465;-72
2021/10/26 09:18:24;;;;;;;31.47;28.90;;;15.80;78.80;;;;;;5071248;28;20490;-72
2021/10/26 09:20:53;;;;;;;29.90;26.80;;;16.00;78.00;;;;;;5057389;28;20494;-72
2021/10/26 09:23:26;;;;;;;28.80;27.00;;;16.20;76.90;;;;;;5070864;28;20458;-72
2021/10/26 09:25:58;;;;;;;28.83;26.73;;;15.90;76.40;;;;;;5070337;28;20475;-73
2021/10/26 09:28:27;;;;;;;28.50;26.67;;;15.50;77.20;;;;;;5071093;28;20453;-73
2021/10/26 09:31:02;;;;;;;30.07;27.73;;;15.30;77.90;;;;;;5057502;28;20455;-72
2021/10/26 09:33:35;;;;;;;28.23;26.37;;;15.40;78.70;;;;;;5070502;28;20477;-72
2021/10/26 09:36:31;;;;;;;27.57;25.77;;;15.40;78.50;;;;;;5056270;28;20548;-73
2021/10/26 09:39:18;;;;;;;26.33;24.63;;;15.70;77.90;;;;;;5069762;28;20971;-73
2021/10/26 09:42:11;;;;;;;25.80;24.00;;;15.80;77.20;;;;;;5055871;28;20578;-72
2021/10/26 09:44:41;;;;;;;26.67;25.00;;;16.00;76.20;;;;;;5052855;28;20924;-72
2021/10/26 09:47:11;;;;;;;26.70;25.00;;;16.10;76.20;;;;;;5062598;28;20797;-72
2021/10/26 09:49:39;;;;;;;26.13;24.43;;;16.20;75.30;;;;;;5068696;28;20454;-73
2021/10/26 09:52:20;;;;;;;27.37;25.47;;;16.00;75.70;;;;;;5066317;28;20562;-72
2021/10/26 09:54:50;;;;;;;27.47;24.77;;;16.00;75.10;;;;;;5064435;28;20465;-72
2021/10/26 09:57:18;;;;;;;28.37;26.17;;;16.10;75.30;;;;;;5054980;28;20541;-74
2021/10/26 09:59:49;;;;;;;26.80;25.27;;;16.10;75.60;;;;;;5065304;28;20465;-71
2021/10/26 10:02:22;;;;;;;26.37;24.70;;;16.20;75.00;;;;;;5063506;28;20465;-72
2021/10/26 10:04:50;;;;;;;25.40;23.80;;;16.30;74.60;;;;;;5067920;28;20477;-72
2021/10/26 10:07:28;;;;;;;27.60;26.00;;;16.40;74.40;;;;;;5069898;28;20462;-71
2021/10/26 10:09:55;;;;;;;27.43;25.57;;;16.50;74.20;;;;;;5063795;28;20458;-71
2021/10/26 10:12:26;;;;;;;24.57;23.17;;;16.50;73.50;;;;;;5060654;28;20481;-70
2021/10/26 10:14:54;;;;;;;26.70;25.20;;;16.50;73.70;;;;;;5066573;28;20546;-70
2021/10/26 10:17:23;;;;;;;27.83;26.20;;;16.60;73.80;;;;;;5069563;28;20465;-69
2021/10/26 10:19:51;;;;;;;27.13;25.53;;;16.70;72.80;;;;;;5062965;28;20467;-69
2021/10/26 10:22:25;;;;;;;25.80;24.20;;;16.80;73.00;;;;;;5064612;28;21002;-69
2021/10/26 10:24:57;;;;;;;26.27;24.47;;;16.80;72.90;;;;;;5063533;28;20828;-69
2021/10/26 10:27:26;;;;;;;26.27;24.67;;;16.80;72.30;;;;;;5063626;28;20454;-69
2021/10/26 10:29:54;;;;;;;26.10;24.37;;;16.70;71.90;;;;;;5062181;28;20572;-69
2021/10/26 10:32:23;;;;;;;27.17;25.47;;;16.70;72.00;;;;;;5063513;28;20505;-69
2021/10/26 10:34:51;;;;;;;27.20;25.60;;;16.80;72.20;;;;;;5055599;28;20463;-70
2021/10/26 10:37:23;;;;;;;25.33;23.80;;;17.00;71.70;;;;;;5069878;28;20949;-69
2021/10/26 10:39:51;;;;;;;26.27;24.77;;;17.00;70.10;;;;;;5062699;28;20478;-69
2021/10/26 10:42:22;;;;;;;24.80;23.20;;;16.90;70.60;;;;;;5057987;28;20471;-69
2021/10/26 10:44:50;;;;;;;25.70;24.10;;;17.10;70.70;;;;;;5064634;28;21098;-69
2021/10/26 10:47:40;;;;;;;25.53;24.07;;;17.30;69.90;;;;;;5055298;28;20466;-69
2021/10/26 10:50:27;;;;;;;26.60;24.90;;;17.50;69.10;;;;;;5064817;28;20568;-69
2021/10/26 10:53:13;;;;;;;26.30;24.70;;;17.40;68.60;;;;;;5067387;28;20987;-70
2021/10/26 10:55:43;;;;;;;26.80;25.30;;;17.20;69.10;;;;;;5067618;28;21036;-73
2021/10/26 10:58:29;;;;;;;25.00;23.53;;;17.00;69.60;;;;;;5068791;28;20474;-73
2021/10/26 11:01:26;;;;;;;27.27;25.60;;;17.00;70.80;;;;;;5056127;28;20462;-72
2021/10/26 11:03:54;;;;;;;25.70;24.20;;;17.20;70.80;;;;;;5068587;28;20461;-72
2021/10/26 11:06:53;;;;;;;26.87;25.13;;;17.10;70.20;;;;;;5066793;28;20462;-74
2021/10/26 11:09:51;;;;;;;27.60;25.90;;;17.20;69.90;;;;;;5067327;28;20460;-72
2021/10/26 11:12:28;;;;;;;26.30;24.70;;;17.30;69.70;;;;;;5063930;28;20994;-72
2021/10/26 11:14:57;;;;;;;26.57;25.07;;;17.50;70.10;;;;;;5067901;28;20457;-72
2021/10/26 11:18:01;;;;;;;26.97;25.47;;;17.60;69.30;;;;;;5068878;28;20508;-70
2021/10/26 11:20:48;;;;;;;25.17;23.77;;;17.70;68.80;;;;;;5057689;28;20458;-71
2021/10/26 11:23:32;;;;;;;26.27;24.40;;;17.80;68.80;;;;;;5056101;28;20557;-73
2021/10/26 11:26:03;;;;;;;26.00;24.50;;;17.70;67.60;;;;;;5067721;28;21007;-75
2021/10/26 11:28:55;;;;;;;26.10;24.40;;;17.60;68.30;;;;;;5068664;28;20541;-74
2021/10/26 11:31:29;;;;;;;25.80;24.40;;;17.10;69.20;;;;;;5060988;28;21267;-72
2021/10/26 11:34:04;;;;;;;25.87;24.27;;;16.80;70.40;;;;;;5068482;28;20485;-72
2021/10/26 11:36:33;;;;;;;26.70;25.10;;;16.60;71.00;;;;;;5054843;28;20462;-72
2021/10/26 11:39:03;;;;;;;25.77;24.00;;;16.80;70.80;;;;;;5068001;28;20465;-73
2021/10/26 11:41:34;;;;;;;26.10;24.47;;;16.80;70.70;;;;;;5059835;28;20505;-72
2021/10/26 11:44:02;;;;;;;24.40;23.00;;;17.00;70.40;;;;;;5053069;28;20476;-73
2021/10/26 11:46:31;;;;;;;26.60;24.90;;;17.00;70.40;;;;;;5055123;28;20512;-73
2021/10/26 11:49:03;;;;;;;24.77;23.13;;;17.10;70.20;;;;;;5068350;28;20482;-73
2021/10/26 11:51:33;;;;;;;26.30;24.60;;;16.90;70.70;;;;;;5060535;28;20478;-72
2021/10/26 11:54:04;;;;;;;25.03;23.50;;;16.90;70.70;;;;;;5080465;28;20480;-72
2021/10/26 11:56:35;;;;;;;24.70;23.13;;;16.80;71.10;;;;;;5055397;28;20462;-72
2021/10/26 11:59:07;;;;;;;25.73;23.93;;;16.70;71.50;;;;;;5067840;28;20454;-74
2021/10/26 12:01:36;;;;;;;26.07;24.40;;;16.70;71.70;;;;;;5061857;28;20473;-72
2021/10/26 12:04:06;;;;;;;26.30;24.73;;;16.40;72.30;;;;;;5067093;28;20544;-74
2021/10/26 12:06:34;;;;;;;26.23;24.40;;;16.30;72.50;;;;;;5067847;28;20537;-71
2021/10/26 12:09:04;;;;;;;27.03;25.53;;;16.20;73.00;;;;;;5068571;28;20968;-74
2021/10/26 12:11:34;;;;;;;26.13;24.33;;;16.20;73.10;;;;;;5061801;28;20477;-72
2021/10/26 12:14:15;;;;;;;25.50;23.80;;;16.10;73.20;;;;;;5067129;28;20480;-73
2021/10/26 12:16:57;;;;;;;25.80;24.20;;;16.00;73.80;;;;;;5057235;28;20458;-72
2021/10/26 12:19:28;;;;;;;25.77;24.30;;;15.90;74.10;;;;;;5066818;28;20458;-71
2021/10/26 12:21:55;;;;;;;25.17;23.67;;;15.70;74.30;;;;;;5062071;28;20470;-72
2021/10/26 12:24:25;;;;;;;25.00;23.60;;;15.60;74.60;;;;;;5065770;28;20454;-72
2021/10/26 12:27:04;;;;;;;25.33;23.80;;;15.70;74.70;;;;;;5056073;28;20541;-72
2021/10/26 12:29:32;;;;;;;24.67;23.17;;;15.80;74.50;;;;;;5062915;28;20463;-72
2021/10/26 12:31:59;;;;;;;27.20;25.70;;;15.90;74.00;;;;;;5059331;28;20478;-71
2021/10/26 12:34:27;;;;;;;24.20;22.80;;;16.00;73.70;;;;;;5066689;28;20486;-71
2021/10/26 12:37:28;;;;;;;24.93;23.30;;;16.10;73.50;;;;;;5065731;28;20481;-71
2021/10/26 12:39:56;;;;;;;26.57;25.07;;;16.00;73.70;;;;;;5061375;28;20451;-71
2021/10/26 12:42:46;;;;;;;26.23;24.63;;;16.00;73.80;;;;;;5053333;28;20509;-71
2021/10/26 12:45:15;;;;;;;28.50;26.20;;;16.10;73.90;;;;;;5054738;28;20526;-71